Time;durP1;ratioP1;P1;durP2;ratioP2;P2;SDS_P1;SDS_P2;PMS_P1;PMS_P2;Temp;Humidity;BMP_temperature;BMP_pressure;BME280_temperature;BME280_humidity;BME280_pressure;Samples;Min_cycle;Max_cycle;Signal;HPM_P1;HPM_P2
2023/05/11 00:06:24;;;;;;;1999.90;999.90;;;11.70;99.90;;;;;;6656329;89;20213;-78
2023/05/11 00:16:25;;;;;;;1999.90;999.90;;;11.70;99.90;;;;;;6652010;89;20247;-78
2023/05/11 00:26:25;;;;;;;1999.90;999.90;;;11.80;99.90;;;;;;6652120;89;20184;-78
2023/05/11 00:36:26;;;;;;;1999.90;999.90;;;11.80;99.90;;;;;;6656216;89;20179;-78
2023/05/11 00:46:27;;;;;;;1999.90;999.90;;;11.70;99.90;;;;;;6674471;89;20220;-78
2023/05/11 00:56:28;;;;;;;1999.90;999.90;;;11.60;99.90;;;;;;6665881;89;20273;-77
2023/05/11 01:06:51;;;;;;;1999.90;999.90;;;11.40;99.90;;;;;;6668063;89;20270;-77
2023/05/11 01:17:02;;;;;;;1999.90;999.90;;;11.40;99.90;;;;;;6651294;89;20515;-78
2023/05/11 01:27:25;;;;;;;1999.90;999.90;;;11.20;99.90;;;;;;6654501;89;20181;-78
2023/05/11 01:37:26;;;;;;;1999.90;999.90;;;11.30;99.90;;;;;;6648862;89;20247;-78
2023/05/11 01:47:29;;;;;;;1999.90;999.90;;;11.30;99.90;;;;;;6654354;89;20242;-78
2023/05/11 01:57:31;;;;;;;1999.90;999.90;;;11.30;99.90;;;;;;6653669;89;21026;-78
2023/05/11 02:07:34;;;;;;;1999.90;999.90;;;11.20;99.90;;;;;;6651755;89;20192;-78
2023/05/11 02:17:35;;;;;;;1999.90;999.90;;;11.20;99.90;;;;;;6651138;89;20213;-78
2023/05/11 02:27:36;;;;;;;1999.90;999.90;;;11.30;99.90;;;;;;6653555;89;20225;-78
2023/05/11 02:37:42;;;;;;;1999.90;999.90;;;11.40;99.90;;;;;;6654107;89;20316;-78
2023/05/11 02:47:46;;;;;;;1999.90;999.90;;;11.40;99.90;;;;;;6653483;89;20196;-78
2023/05/11 02:57:47;;;;;;;1999.90;999.90;;;11.40;99.90;;;;;;6651195;89;20185;-78
2023/05/11 03:07:48;;;;;;;1999.90;999.90;;;11.40;99.90;;;;;;6654916;89;20221;-78
2023/05/11 03:17:52;;;;;;;1999.90;999.90;;;11.30;99.90;;;;;;6650776;89;20240;-78
2023/05/11 03:27:54;;;;;;;1999.90;999.90;;;11.40;99.90;;;;;;6656356;89;20231;-78
2023/05/11 03:37:57;;;;;;;1999.90;999.90;;;11.40;99.90;;;;;;6652661;89;20679;-78
2023/05/11 03:47:58;;;;;;;1999.90;999.90;;;11.50;99.90;;;;;;6653075;89;20197;-78
2023/05/11 03:57:59;;;;;;;1999.90;999.90;;;11.40;99.90;;;;;;6660905;89;20192;-77
2023/05/11 04:08:01;;;;;;;1999.90;999.90;;;11.50;99.90;;;;;;6666781;89;20173;-78
2023/05/11 04:18:02;;;;;;;1999.90;999.90;;;11.30;99.90;;;;;;6647364;89;20196;-79
2023/05/11 04:28:02;;;;;;;1999.90;999.90;;;11.30;99.90;;;;;;6651253;89;20675;-78
2023/05/11 04:38:03;;;;;;;1999.90;999.90;;;11.10;99.90;;;;;;6651190;89;20212;-78
2023/05/11 04:48:05;;;;;;;1999.90;999.90;;;11.00;99.90;;;;;;6650687;89;20208;-78
2023/05/11 04:58:05;;;;;;;1999.90;999.90;;;11.20;99.90;;;;;;6652847;89;20207;-79
2023/05/11 05:08:06;;;;;;;1999.90;999.90;;;11.30;99.90;;;;;;6652059;89;20199;-79
2023/05/11 05:18:06;;;;;;;1999.90;999.90;;;11.40;99.90;;;;;;6654359;89;20199;-79
2023/05/11 05:28:07;;;;;;;1999.90;999.90;;;11.50;99.90;;;;;;6661268;89;20184;-80
2023/05/11 05:38:07;;;;;;;1999.90;999.90;;;11.70;99.90;;;;;;6676007;89;20642;-80
2023/05/11 05:48:08;;;;;;;1999.90;999.90;;;11.80;99.90;;;;;;6673645;89;20213;-79
2023/05/11 05:58:09;;;;;;;1999.90;999.90;;;11.90;99.90;;;;;;6673079;88;20269;-79
2023/05/11 06:08:10;;;;;;;1999.90;999.90;;;12.10;99.90;;;;;;6665180;89;20573;-79
2023/05/11 06:18:10;;;;;;;1999.90;999.90;;;12.30;99.90;;;;;;6652248;89;20247;-78
2023/05/11 06:28:11;;;;;;;1999.90;999.90;;;12.30;99.90;;;;;;6652519;89;20200;-77
2023/05/11 06:38:12;;;;;;;1999.90;999.90;;;12.50;99.90;;;;;;6654571;89;20210;-77
2023/05/11 06:48:12;;;;;;;1999.90;999.90;;;12.70;99.90;;;;;;6651376;89;20509;-78
2023/05/11 06:58:13;;;;;;;1999.90;999.90;;;12.60;99.90;;;;;;6656957;89;20214;-78
2023/05/11 07:08:13;;;;;;;1999.90;999.90;;;12.50;99.90;;;;;;6655863;89;20644;-78
2023/05/11 07:18:14;;;;;;;1999.90;999.90;;;12.70;99.90;;;;;;6657883;88;20321;-78
2023/05/11 07:28:15;;;;;;;1999.90;999.90;;;12.70;99.90;;;;;;6651580;89;20391;-78
2023/05/11 07:38:17;;;;;;;1999.90;999.90;;;12.80;99.90;;;;;;6656234;89;20196;-78
2023/05/11 07:48:17;;;;;;;1999.90;999.90;;;13.00;99.90;;;;;;6655004;89;20184;-78
2023/05/11 07:58:18;;;;;;;1999.90;999.90;;;13.10;99.90;;;;;;6658545;89;21068;-78
2023/05/11 08:08:18;;;;;;;1999.90;999.90;;;13.40;99.90;;;;;;6665563;89;20216;-77
2023/05/11 08:18:19;;;;;;;1999.90;999.90;;;13.80;99.90;;;;;;6663422;89;21159;-77
2023/05/11 08:28:20;;;;;;;1999.90;999.90;;;14.30;99.90;;;;;;6645090;89;20324;-78
2023/05/11 08:38:21;;;;;;;1999.90;999.90;;;15.00;99.90;;;;;;6651952;89;20240;-78
2023/05/11 08:48:21;;;;;;;1999.90;999.90;;;15.10;99.90;;;;;;6660344;89;20378;-77
2023/05/11 08:58:22;;;;;;;1999.90;999.90;;;15.40;99.90;;;;;;6652578;89;20197;-77
2023/05/11 09:08:27;;;;;;;1999.90;999.90;;;15.40;99.90;;;;;;6651886;89;20716;-77
2023/05/11 09:18:27;;;;;;;1999.90;999.90;;;15.50;99.90;;;;;;6655938;89;20212;-77
2023/05/11 09:28:28;;;;;;;1999.90;999.90;;;15.50;99.90;;;;;;6660934;89;20706;-77
2023/05/11 09:38:28;;;;;;;1999.90;999.90;;;15.70;99.90;;;;;;6653947;89;20200;-79
2023/05/11 09:48:31;;;;;;;1999.90;999.90;;;16.20;99.90;;;;;;6651086;89;20207;-77
2023/05/11 09:58:56;;;;;;;1999.90;999.90;;;17.10;99.90;;;;;;6648867;89;21170;-77
2023/05/11 10:09:06;;;;;;;;;;;17.20;99.90;;;;;;6650440;89;20192;-77
2023/05/11 10:19:08;;;;;;;1999.90;999.90;;;17.80;99.90;;;;;;6654296;78;20188;-75
2023/05/11 10:29:09;;;;;;;1999.90;999.90;;;18.10;99.90;;;;;;6643671;89;20188;-74
2023/05/11 10:39:10;;;;;;;1999.90;999.90;;;18.20;99.90;;;;;;6637151;89;20708;-75
2023/05/11 10:49:40;;;;;;;1999.90;999.90;;;18.60;99.90;;;;;;6631928;89;20291;-74
2023/05/11 11:00:09;;;;;;;1999.90;999.90;;;18.40;99.90;;;;;;6631736;89;20655;-75
2023/05/11 11:10:11;;;;;;;1999.90;999.90;;;18.40;99.90;;;;;;6636691;89;20164;-75
2023/05/11 11:20:44;;;;;;;1999.90;999.90;;;18.40;99.90;;;;;;6635285;89;20201;-75
2023/05/11 11:30:44;;;;;;;1999.90;999.90;;;18.40;99.90;;;;;;6631104;89;20212;-75
2023/05/11 11:40:48;;;;;;;1999.90;999.90;;;17.80;99.90;;;;;;6635583;89;20224;-76
2023/05/11 11:51:01;;;;;;;1999.90;999.90;;;17.90;99.90;;;;;;6636407;89;20203;-75
2023/05/11 12:01:03;;;;;;;1999.90;999.90;;;17.80;99.90;;;;;;6634960;89;20246;-76
2023/05/11 12:11:05;;;;;;;1999.90;999.90;;;19.00;99.90;;;;;;6633950;89;20227;-76
2023/05/11 12:21:05;;;;;;;1999.90;999.90;;;19.80;99.90;;;;;;6633817;89;20208;-75
2023/05/11 12:31:07;;;;;;;1999.90;999.90;;;20.00;99.90;;;;;;6630042;89;20246;-76
2023/05/11 12:41:07;;;;;;;1999.90;999.90;;;20.20;99.90;;;;;;6632751;89;20223;-76
2023/05/11 12:51:08;;;;;;;1999.90;999.90;;;20.50;99.90;;;;;;6641738;89;20720;-76
2023/05/11 13:01:08;;;;;;;1999.90;999.90;;;20.20;99.90;;;;;;6633230;89;20260;-76
2023/05/11 13:11:25;;;;;;;1999.90;999.90;;;20.70;99.90;;;;;;6632892;89;20770;-76
2023/05/11 13:21:28;;;;;;;1999.90;999.90;;;20.80;99.90;;;;;;6640954;89;20237;-78
2023/05/11 13:31:28;;;;;;;1999.90;999.90;;;20.30;99.90;;;;;;6629898;89;20719;-76
2023/05/11 13:41:29;;;;;;;1999.90;999.90;;;20.20;99.90;;;;;;6633559;89;20193;-76
2023/05/11 13:51:30;;;;;;;1999.90;999.90;;;19.70;99.90;;;;;;6635877;89;20193;-76
2023/05/11 14:01:31;;;;;;;1999.90;999.90;;;19.60;99.90;;;;;;6638268;89;20260;-76
2023/05/11 14:11:31;;;;;;;1999.90;999.90;;;19.00;99.90;;;;;;6642329;89;20998;-75
2023/05/11 14:21:32;;;;;;;1999.90;999.90;;;18.70;99.90;;;;;;6637596;89;21005;-76
2023/05/11 14:31:33;;;;;;;1999.90;999.90;;;18.40;99.90;;;;;;6626809;89;20755;-76
2023/05/11 14:41:34;;;;;;;1999.90;999.90;;;18.10;99.90;;;;;;6634461;89;20185;-74
2023/05/11 14:51:35;;;;;;;1999.90;999.90;;;18.20;99.90;;;;;;6640613;89;20216;-75
2023/05/11 15:01:36;;;;;;;1999.90;999.90;;;18.00;99.90;;;;;;6629128;89;20247;-76
2023/05/11 15:11:36;;;;;;;1999.90;999.90;;;18.10;99.90;;;;;;6630512;89;20209;-76
2023/05/11 15:21:37;;;;;;;1999.90;999.90;;;17.90;99.90;;;;;;6628244;89;20251;-76
2023/05/11 15:31:37;;;;;;;1999.90;999.90;;;17.80;99.90;;;;;;6630832;89;20568;-76
2023/05/11 15:41:38;;;;;;;1999.90;999.90;;;17.60;99.90;;;;;;6634594;89;20189;-75
2023/05/11 15:51:38;;;;;;;1999.90;999.90;;;17.40;99.90;;;;;;6637150;89;20249;-76
2023/05/11 16:01:39;;;;;;;1999.90;999.90;;;17.30;99.90;;;;;;6634612;89;20931;-76
2023/05/11 16:11:40;;;;;;;1999.90;999.90;;;17.00;99.90;;;;;;6630368;89;20197;-76
2023/05/11 16:21:42;;;;;;;1999.90;999.90;;;16.80;99.90;;;;;;6651090;78;20216;-76
2023/05/11 16:31:43;;;;;;;1999.90;999.90;;;16.50;99.90;;;;;;6658568;89;20207;-76
2023/05/11 16:41:43;;;;;;;1999.90;999.90;;;16.00;99.90;;;;;;6666641;89;20197;-76
2023/05/11 16:51:44;;;;;;;1999.90;999.90;;;15.80;99.90;;;;;;6666241;88;20196;-76
2023/05/11 17:01:45;;;;;;;1999.90;999.90;;;15.60;99.90;;;;;;6660110;89;20696;-75
2023/05/11 17:11:46;;;;;;;1999.90;999.90;;;15.40;99.90;;;;;;6666281;89;20587;-77
2023/05/11 17:21:46;;;;;;;1999.90;999.90;;;15.40;99.90;;;;;;6659059;89;20184;-77
2023/05/11 17:31:49;;;;;;;1999.90;999.90;;;15.30;99.90;;;;;;6660653;89;20289;-77
2023/05/11 17:41:49;;;;;;;1999.90;999.90;;;15.20;99.90;;;;;;6660618;89;20269;-75
2023/05/11 17:51:50;;;;;;;1999.90;999.90;;;15.10;99.90;;;;;;6661180;89;20196;-77
2023/05/11 18:01:50;;;;;;;1999.90;999.90;;;14.70;99.90;;;;;;6669349;89;20301;-78
2023/05/11 18:11:51;;;;;;;1999.90;999.90;;;14.50;99.90;;;;;;6665440;88;20209;-77
2023/05/11 18:21:52;;;;;;;1999.90;999.90;;;14.30;99.90;;;;;;6659588;89;20191;-77
2023/05/11 18:31:52;;;;;;;1999.90;999.90;;;14.20;99.90;;;;;;6657681;89;20203;-75
2023/05/11 18:41:53;;;;;;;1999.90;999.90;;;14.10;99.90;;;;;;6665890;88;20731;-76
2023/05/11 18:51:54;;;;;;;1999.90;999.90;;;14.00;99.90;;;;;;6663343;88;20205;-76
2023/05/11 19:01:55;;;;;;;1999.90;999.90;;;13.90;99.90;;;;;;6664332;88;20187;-77
2023/05/11 19:11:55;;;;;;;1999.90;999.90;;;13.80;99.90;;;;;;6676229;88;20921;-77
2023/05/11 19:21:57;;;;;;;1999.90;999.90;;;13.80;99.90;;;;;;6682223;88;20218;-77
2023/05/11 19:31:58;;;;;;;1999.90;999.90;;;13.70;99.90;;;;;;6667045;88;20235;-76
2023/05/11 19:41:59;;;;;;;1999.90;999.90;;;13.60;99.90;;;;;;6661285;88;20721;-76
2023/05/11 19:52:00;;;;;;;1999.90;999.90;;;13.60;99.90;;;;;;6661675;89;20196;-77
2023/05/11 20:02:02;;;;;;;1999.90;999.90;;;13.50;99.90;;;;;;6663243;88;20769;-76
2023/05/11 20:12:02;;;;;;;1999.90;999.90;;;13.50;99.90;;;;;;6662428;88;20268;-76
2023/05/11 20:22:03;;;;;;;1999.90;999.90;;;13.50;99.90;;;;;;6654224;88;20997;-76
2023/05/11 20:32:05;;;;;;;1999.90;999.90;;;13.40;99.90;;;;;;6659913;88;20730;-74
2023/05/11 20:42:05;;;;;;;1999.90;999.90;;;13.40;99.90;;;;;;6667362;89;20193;-75
2023/05/11 20:52:07;;;;;;;1999.90;999.90;;;13.30;99.90;;;;;;6661902;89;20195;-78
2023/05/11 21:02:07;;;;;;;1999.90;999.90;;;13.30;99.90;;;;;;6667424;89;20709;-77
2023/05/11 21:12:08;;;;;;;1999.90;999.90;;;13.20;99.90;;;;;;6668070;89;20239;-77
2023/05/11 21:22:08;;;;;;;1999.90;999.90;;;13.20;99.90;;;;;;6667301;89;20243;-78
2023/05/11 21:32:09;;;;;;;1999.90;999.90;;;13.20;99.90;;;;;;6665550;89;20215;-77
2023/05/11 21:42:10;;;;;;;1999.90;999.90;;;13.20;99.90;;;;;;6669207;88;20213;-78
2023/05/11 21:52:11;;;;;;;1999.90;999.90;;;13.20;99.90;;;;;;6675519;88;20349;-77
2023/05/11 22:02:11;;;;;;;1999.90;999.90;;;13.20;99.90;;;;;;6675213;88;20295;-77
2023/05/11 22:12:12;;;;;;;1999.90;999.90;;;13.20;99.90;;;;;;6672806;89;20238;-78
2023/05/11 22:22:53;;;;;;;1999.90;999.90;;;13.20;99.90;;;;;;6671921;78;20729;-80
2023/05/11 22:32:54;;;;;;;1999.90;999.90;;;13.20;99.90;;;;;;6640355;89;20193;-80
2023/05/11 22:42:54;;;;;;;1999.90;999.90;;;13.20;99.90;;;;;;6639120;89;20219;-80
2023/05/11 22:52:55;;;;;;;1999.90;999.90;;;13.10;99.90;;;;;;6639120;89;20200;-78
2023/05/11 23:02:56;;;;;;;1999.90;999.90;;;13.00;99.90;;;;;;6639275;89;20262;-79
2023/05/11 23:12:56;;;;;;;1999.90;999.90;;;12.90;99.90;;;;;;6640465;89;20342;-79
2023/05/11 23:22:57;;;;;;;1999.90;999.90;;;12.80;99.90;;;;;;6649339;89;20195;-78
2023/05/11 23:32:57;;;;;;;1999.90;999.90;;;12.80;99.90;;;;;;6643083;89;20201;-79
2023/05/11 23:42:58;;;;;;;1999.90;999.90;;;12.70;99.90;;;;;;6639475;89;20218;-79
2023/05/11 23:52:58;;;;;;;1999.90;999.90;;;12.60;99.90;;;;;;6638003;89;20233;-80
